sensor_id;sensor_type;location;lat;lon;timestamp;pressure;altitude;pressure_sealevel;temperature;humidity
60319;BME280;46163;52.306;5.634;2023-05-21T00:00:22;101872.66;;;19.43;57.32
60319;BME280;46163;52.306;5.634;2023-05-21T00:02:47;101875.59;;;19.41;57.28
60319;BME280;46163;52.306;5.634;2023-05-21T00:05:13;101879.69;;;19.44;57.24
60319;BME280;46163;52.306;5.634;2023-05-21T00:07:39;101878.88;;;19.43;57.21
60319;BME280;46163;52.306;5.634;2023-05-21T00:10:05;101871.00;;;19.42;57.20
60319;BME280;46163;52.306;5.634;2023-05-21T00:12:31;101867.72;;;19.40;57.00
60319;BME280;46163;52.306;5.634;2023-05-21T00:14:57;101865.03;;;19.40;57.33
60319;BME280;46163;52.306;5.634;2023-05-21T00:17:23;101859.63;;;19.40;57.26
60319;BME280;46163;52.306;5.634;2023-05-21T00:19:50;101858.81;;;19.39;57.29
60319;BME280;46163;52.306;5.634;2023-05-21T00:22:16;101859.88;;;19.38;57.25
60319;BME280;46163;52.306;5.634;2023-05-21T00:24:41;101865.28;;;19.38;57.28
60319;BME280;46163;52.306;5.634;2023-05-21T00:27:07;101856.81;;;19.35;57.12
60319;BME280;46163;52.306;5.634;2023-05-21T00:29:32;101859.50;;;19.35;57.26
60319;BME280;46163;52.306;5.634;2023-05-21T00:31:58;101857.63;;;19.35;57.12
60319;BME280;46163;52.306;5.634;2023-05-21T00:34:23;101857.88;;;19.34;57.22
60319;BME280;46163;52.306;5.634;2023-05-21T00:36:48;101861.38;;;19.34;57.14
60319;BME280;46163;52.306;5.634;2023-05-21T00:39:14;101859.75;;;19.33;57.22
60319;BME280;46163;52.306;5.634;2023-05-21T00:41:40;101857.88;;;19.34;57.26
60319;BME280;46163;52.306;5.634;2023-05-21T00:44:07;101858.09;;;19.32;57.27
60319;BME280;46163;52.306;5.634;2023-05-21T00:46:33;101851.50;;;19.28;57.16
60319;BME280;46163;52.306;5.634;2023-05-21T00:48:59;101843.22;;;19.30;57.33
60319;BME280;46163;52.306;5.634;2023-05-21T00:51:27;101844.28;;;19.29;57.11
60319;BME280;46163;52.306;5.634;2023-05-21T00:53:55;101851.31;;;19.30;57.33
60319;BME280;46163;52.306;5.634;2023-05-21T00:56:22;101838.63;;;19.30;57.14
60319;BME280;46163;52.306;5.634;2023-05-21T00:58:48;101827.38;;;19.22;57.16
60319;BME280;46163;52.306;5.634;2023-05-21T01:01:16;101832.03;;;19.26;57.30
60319;BME280;46163;52.306;5.634;2023-05-21T01:03:42;101838.03;;;19.28;57.19
60319;BME280;46163;52.306;5.634;2023-05-21T01:06:09;101839.91;;;19.28;57.18
60319;BME280;46163;52.306;5.634;2023-05-21T01:08:36;101838.25;;;19.27;57.38
60319;BME280;46163;52.306;5.634;2023-05-21T01:11:04;101832.84;;;19.27;57.17
60319;BME280;46163;52.306;5.634;2023-05-21T01:13:31;101827.94;;;19.24;57.36
60319;BME280;46163;52.306;5.634;2023-05-21T01:15:58;101832.53;;;19.23;57.05
60319;BME280;46163;52.306;5.634;2023-05-21T01:18:24;101826.75;;;19.19;57.17
60319;BME280;46163;52.306;5.634;2023-05-21T01:20:51;101823.38;;;19.24;57.27
60319;BME280;46163;52.306;5.634;2023-05-21T01:23:17;101823.03;;;19.20;57.18
60319;BME280;46163;52.306;5.634;2023-05-21T01:25:45;101829.81;;;19.23;57.56
60319;BME280;46163;52.306;5.634;2023-05-21T01:28:11;101806.94;;;19.14;57.39
60319;BME280;46163;52.306;5.634;2023-05-21T01:30:38;101818.44;;;19.21;57.26
60319;BME280;46163;52.306;5.634;2023-05-21T01:33:15;101815.75;;;19.21;57.34
60319;BME280;46163;52.306;5.634;2023-05-21T01:38:22;101808.34;;;19.16;57.08
60319;BME280;46163;52.306;5.634;2023-05-21T01:43:23;101813.50;;;19.18;57.30
60319;BME280;46163;52.306;5.634;2023-05-21T01:45:53;101805.63;;;19.16;57.17
60319;BME280;46163;52.306;5.634;2023-05-21T01:48:19;101811.03;;;19.16;57.27
60319;BME280;46163;52.306;5.634;2023-05-21T01:50:46;101802.59;;;19.13;57.32
60319;BME280;46163;52.306;5.634;2023-05-21T01:53:12;101810.47;;;19.14;57.19
60319;BME280;46163;52.306;5.634;2023-05-21T01:55:37;101811.28;;;19.15;57.10
60319;BME280;46163;52.306;5.634;2023-05-21T01:58:06;101805.75;;;19.10;57.23
60319;BME280;46163;52.306;5.634;2023-05-21T02:00:32;101812.34;;;19.14;57.25
60319;BME280;46163;52.306;5.634;2023-05-21T02:02:59;101807.75;;;19.14;57.22
60319;BME280;46163;52.306;5.634;2023-05-21T02:05:24;101808.81;;;19.13;57.14
60319;BME280;46163;52.306;5.634;2023-05-21T02:07:50;101805.31;;;19.13;57.16
60319;BME280;46163;52.306;5.634;2023-05-21T02:10:19;101798.25;;;19.12;57.09
60319;BME280;46163;52.306;5.634;2023-05-21T02:12:44;101803.66;;;19.12;57.27
60319;BME280;46163;52.306;5.634;2023-05-21T02:15:10;101799.28;;;19.11;57.30
60319;BME280;46163;52.306;5.634;2023-05-21T02:17:35;101784.06;;;19.05;57.15
60319;BME280;46163;52.306;5.634;2023-05-21T02:20:05;101792.25;;;19.10;57.10
60319;BME280;46163;52.306;5.634;2023-05-21T02:22:42;101801.16;;;19.10;57.23
60319;BME280;46163;52.306;5.634;2023-05-21T02:25:12;101799.53;;;19.09;57.22
60319;BME280;46163;52.306;5.634;2023-05-21T02:27:39;101786.75;;;19.05;57.33
60319;BME280;46163;52.306;5.634;2023-05-21T02:30:07;101796.25;;;19.07;57.29
60319;BME280;46163;52.306;5.634;2023-05-21T02:32:33;101801.66;;;19.07;57.18
60319;BME280;46163;52.306;5.634;2023-05-21T02:35:01;101796.25;;;19.07;57.35
60319;BME280;46163;52.306;5.634;2023-05-21T02:37:27;101794.63;;;19.06;57.39
60319;BME280;46163;52.306;5.634;2023-05-21T02:39:53;101802.94;;;19.05;57.31
60319;BME280;46163;52.306;5.634;2023-05-21T02:42:21;101795.09;;;19.03;57.33
60319;BME280;46163;52.306;5.634;2023-05-21T02:44:48;101778.63;;;18.93;57.41
60319;BME280;46163;52.306;5.634;2023-05-21T02:47:17;101798.81;;;19.02;57.11
60319;BME280;46163;52.306;5.634;2023-05-21T02:49:42;101790.50;;;19.04;57.23
60319;BME280;46163;52.306;5.634;2023-05-21T02:52:08;101787.22;;;19.02;57.20
60319;BME280;46163;52.306;5.634;2023-05-21T02:54:33;101784.16;;;18.98;57.29
60319;BME280;46163;52.306;5.634;2023-05-21T02:56:59;101788.50;;;18.99;57.29
60319;BME280;46163;52.306;5.634;2023-05-21T02:59:25;101798.00;;;19.02;57.16
60319;BME280;46163;52.306;5.634;2023-05-21T03:01:50;101783.34;;;18.98;57.12
60319;BME280;46163;52.306;5.634;2023-05-21T03:04:16;101782.53;;;18.97;57.17
60319;BME280;46163;52.306;5.634;2023-05-21T03:06:42;101784.66;;;18.95;57.19
60319;BME280;46163;52.306;5.634;2023-05-21T03:09:09;101788.16;;;18.96;57.43
60319;BME280;46163;52.306;5.634;2023-05-21T03:11:35;101793.91;;;18.99;57.28
60319;BME280;46163;52.306;5.634;2023-05-21T03:14:03;101780.88;;;18.96;57.41
60319;BME280;46163;52.306;5.634;2023-05-21T03:16:28;101778.44;;;18.95;57.11
60319;BME280;46163;52.306;5.634;2023-05-21T03:18:58;101785.47;;;18.96;57.15
60319;BME280;46163;52.306;5.634;2023-05-21T03:21:24;101784.84;;;18.93;57.14
60319;BME280;46163;52.306;5.634;2023-05-21T03:23:49;101788.16;;;18.96;57.30
60319;BME280;46163;52.306;5.634;2023-05-21T03:26:15;101783.81;;;18.95;57.31
60319;BME280;46163;52.306;5.634;2023-05-21T03:28:41;101780.31;;;18.94;57.29
60319;BME280;46163;52.306;5.634;2023-05-21T03:31:09;101781.13;;;18.95;57.44
60319;BME280;46163;52.306;5.634;2023-05-21T03:33:34;101780.31;;;18.94;56.69
60319;BME280;46163;52.306;5.634;2023-05-21T03:36:00;101780.31;;;18.94;57.37
60319;BME280;46163;52.306;5.634;2023-05-21T03:38:25;101778.63;;;18.93;57.33
60319;BME280;46163;52.306;5.634;2023-05-21T03:40:50;101774.19;;;18.87;57.13
60319;BME280;46163;52.306;5.634;2023-05-21T03:43:16;101762.69;;;18.91;57.25
60319;BME280;46163;52.306;5.634;2023-05-21T03:45:44;101772.41;;;18.92;57.17
60319;BME280;46163;52.306;5.634;2023-05-21T03:48:09;101782.41;;;18.92;57.29
60319;BME280;46163;52.306;5.634;2023-05-21T03:50:37;101783.44;;;18.91;57.25
60319;BME280;46163;52.306;5.634;2023-05-21T03:53:02;101779.13;;;18.90;57.36
60319;BME280;46163;52.306;5.634;2023-05-21T03:55:28;101767.50;;;18.89;57.29
60319;BME280;46163;52.306;5.634;2023-05-21T03:57:54;101778.28;;;18.89;57.35
60319;BME280;46163;52.306;5.634;2023-05-21T04:00:19;101777.47;;;18.89;57.23
60319;BME280;46163;52.306;5.634;2023-05-21T04:02:45;101773.13;;;18.88;57.20
60319;BME280;46163;52.306;5.634;2023-05-21T04:05:13;101768.81;;;18.87;57.15
60319;BME280;46163;52.306;5.634;2023-05-21T04:07:39;101756.94;;;18.76;57.34
60319;BME280;46163;52.306;5.634;2023-05-21T04:10:05;101765.50;;;18.85;57.19
60319;BME280;46163;52.306;5.634;2023-05-21T04:12:30;101766.34;;;18.85;56.80
60319;BME280;46163;52.306;5.634;2023-05-21T04:14:56;101763.66;;;18.85;57.26
60319;BME280;46163;52.306;5.634;2023-05-21T04:17:21;101772.56;;;18.86;57.42
60319;BME280;46163;52.306;5.634;2023-05-21T04:19:47;101769.03;;;18.85;57.44
60319;BME280;46163;52.306;5.634;2023-05-21T04:22:12;101770.88;;;18.85;57.24
60319;BME280;46163;52.306;5.634;2023-05-21T04:24:37;101771.75;;;18.85;57.33
60319;BME280;46163;52.306;5.634;2023-05-21T04:27:05;101773.59;;;18.85;57.25
60319;BME280;46163;52.306;5.634;2023-05-21T04:29:31;101764.09;;;18.82;57.45
60319;BME280;46163;52.306;5.634;2023-05-21T04:31:56;101765.72;;;18.83;57.41
60319;BME280;46163;52.306;5.634;2023-05-21T04:34:22;101771.13;;;18.83;57.24
60319;BME280;46163;52.306;5.634;2023-05-21T04:36:47;101761.41;;;18.82;57.23
60319;BME280;46163;52.306;5.634;2023-05-21T04:39:13;101773.81;;;18.83;57.09
60319;BME280;46163;52.306;5.634;2023-05-21T04:41:39;101768.66;;;18.82;57.17
60319;BME280;46163;52.306;5.634;2023-05-21T04:44:06;101781.69;;;18.85;57.27
60319;BME280;46163;52.306;5.634;2023-05-21T04:46:32;101785.44;;;18.84;57.28
60319;BME280;46163;52.306;5.634;2023-05-21T04:49:02;101782.97;;;18.82;57.24
60319;BME280;46163;52.306;5.634;2023-05-21T04:51:31;101785.44;;;18.84;57.37
60319;BME280;46163;52.306;5.634;2023-05-21T04:53:57;101783.78;;;18.83;57.08
60319;BME280;46163;52.306;5.634;2023-05-21T04:56:25;101786.50;;;18.83;57.16
60319;BME280;46163;52.306;5.634;2023-05-21T04:58:52;101783.22;;;18.81;57.24
60319;BME280;46163;52.306;5.634;2023-05-21T05:01:18;101785.91;;;18.81;57.36
60319;BME280;46163;52.306;5.634;2023-05-21T05:03:47;101798.91;;;18.84;57.09
60319;BME280;46163;52.306;5.634;2023-05-21T05:06:12;101792.94;;;18.82;57.35
60319;BME280;46163;52.306;5.634;2023-05-21T05:08:38;101791.06;;;18.82;57.05
60319;BME280;46163;52.306;5.634;2023-05-21T05:11:03;101793.75;;;18.82;57.30
60319;BME280;46163;52.306;5.634;2023-05-21T05:13:29;101786.97;;;18.80;57.34
60319;BME280;46163;52.306;5.634;2023-05-21T05:15:54;101791.28;;;18.81;57.06
60319;BME280;46163;52.306;5.634;2023-05-21T05:18:21;101786.72;;;18.81;57.24
60319;BME280;46163;52.306;5.634;2023-05-21T05:20:49;101775.22;;;18.74;57.34
60319;BME280;46163;52.306;5.634;2023-05-21T05:23:15;101784.84;;;18.82;57.24
60319;BME280;46163;52.306;5.634;2023-05-21T05:25:48;101781.34;;;18.81;57.52
60319;BME280;46163;52.306;5.634;2023-05-21T05:28:13;101785.66;;;18.82;57.59
60319;BME280;46163;52.306;5.634;2023-05-21T05:30:38;101783.44;;;18.79;57.47
60319;BME280;46163;52.306;5.634;2023-05-21T05:33:04;101785.56;;;18.77;57.57
60319;BME280;46163;52.306;5.634;2023-05-21T05:35:32;101776.19;;;18.80;57.61
60319;BME280;46163;52.306;5.634;2023-05-21T05:37:57;101778.41;;;18.83;57.58
60319;BME280;46163;52.306;5.634;2023-05-21T05:40:22;101776.75;;;18.82;57.45
60319;BME280;46163;52.306;5.634;2023-05-21T05:42:48;101774.88;;;18.82;57.86
60319;BME280;46163;52.306;5.634;2023-05-21T05:45:14;101781.91;;;18.83;57.61
60319;BME280;46163;52.306;5.634;2023-05-21T05:47:41;101782.16;;;18.82;57.64
60319;BME280;46163;52.306;5.634;2023-05-21T05:50:09;101786.03;;;18.86;57.55
60319;BME280;46163;52.306;5.634;2023-05-21T05:52:35;101783.34;;;18.86;57.36
60319;BME280;46163;52.306;5.634;2023-05-21T05:55:01;101781.69;;;18.85;57.55
60319;BME280;46163;52.306;5.634;2023-05-21T05:57:27;101779.22;;;18.83;57.34
60319;BME280;46163;52.306;5.634;2023-05-21T05:59:52;101780.03;;;18.84;57.43
60319;BME280;46163;52.306;5.634;2023-05-21T06:02:17;101779.81;;;18.85;57.25
60319;BME280;46163;52.306;5.634;2023-05-21T06:04:43;101785.81;;;18.87;57.47
60319;BME280;46163;52.306;5.634;2023-05-21T06:07:08;101781.00;;;18.89;57.47
60319;BME280;46163;52.306;5.634;2023-05-21T06:09:34;101769.97;;;18.91;57.25
60319;BME280;46163;52.306;5.634;2023-05-21T06:11:59;101770.44;;;18.88;57.44
60319;BME280;46163;52.306;5.634;2023-05-21T06:14:25;101769.16;;;18.90;57.41
60319;BME280;46163;52.306;5.634;2023-05-21T06:16:50;101769.97;;;18.91;57.44
60319;BME280;46163;52.306;5.634;2023-05-21T06:19:16;101768.31;;;18.90;57.06
60319;BME280;46163;52.306;5.634;2023-05-21T06:21:41;101769.97;;;18.91;57.18
60319;BME280;46163;52.306;5.634;2023-05-21T06:24:07;101766.22;;;18.92;57.32
60319;BME280;46163;52.306;5.634;2023-05-21T06:26:32;101769.53;;;18.94;57.25
60319;BME280;46163;52.306;5.634;2023-05-21T06:28:58;101764.94;;;18.95;57.21
60319;BME280;46163;52.306;5.634;2023-05-21T06:31:23;101765.38;;;18.91;57.18
60319;BME280;46163;52.306;5.634;2023-05-21T06:33:49;101759.75;;;18.93;57.53
60319;BME280;46163;52.306;5.634;2023-05-21T06:36:15;101760.56;;;18.93;57.17
60319;BME280;46163;52.306;5.634;2023-05-21T06:38:40;101764.72;;;18.96;57.25
60319;BME280;46163;52.306;5.634;2023-05-21T06:41:07;101753.91;;;18.96;57.36
60319;BME280;46163;52.306;5.634;2023-05-21T06:43:33;101755.56;;;18.97;57.05
60319;BME280;46163;52.306;5.634;2023-05-21T06:45:59;101754.50;;;18.98;57.31
60319;BME280;46163;52.306;5.634;2023-05-21T06:48:25;101755.31;;;18.99;57.03
60319;BME280;46163;52.306;5.634;2023-05-21T06:50:50;101751.31;;;19.01;57.21
60319;BME280;46163;52.306;5.634;2023-05-21T06:53:16;101748.63;;;19.01;57.15
60319;BME280;46163;52.306;5.634;2023-05-21T06:55:41;101752.13;;;19.02;57.05
60319;BME280;46163;52.306;5.634;2023-05-21T06:58:10;101755.44;;;19.04;57.00
60319;BME280;46163;52.306;5.634;2023-05-21T07:00:36;101761.66;;;19.04;57.07
60319;BME280;46163;52.306;5.634;2023-05-21T07:03:01;101745.72;;;19.03;57.13
60319;BME280;46163;52.306;5.634;2023-05-21T07:05:28;101747.94;;;19.06;57.30
60319;BME280;46163;52.306;5.634;2023-05-21T07:07:56;101749.56;;;19.07;57.24
60319;BME280;46163;52.306;5.634;2023-05-21T07:10:22;101743.84;;;19.03;57.04
60319;BME280;46163;52.306;5.634;2023-05-21T07:12:47;101752.50;;;19.05;57.13
60319;BME280;46163;52.306;5.634;2023-05-21T07:15:12;101755.78;;;19.07;57.17
60319;BME280;46163;52.306;5.634;2023-05-21T07:17:38;101753.91;;;19.08;56.97
60319;BME280;46163;52.306;5.634;2023-05-21T07:20:04;101751.44;;;19.06;57.36
60319;BME280;46163;52.306;5.634;2023-05-21T07:22:35;101756.13;;;19.11;57.15
60319;BME280;46163;52.306;5.634;2023-05-21T07:25:01;101745.56;;;19.09;57.21
60319;BME280;46163;52.306;5.634;2023-05-21T07:27:26;101761.31;;;19.12;57.06
60319;BME280;46163;52.306;5.634;2023-05-21T07:29:52;101764.59;;;19.14;57.13
60319;BME280;46163;52.306;5.634;2023-05-21T07:32:17;101759.44;;;19.13;57.05
60319;BME280;46163;52.306;5.634;2023-05-21T07:34:42;101756.59;;;19.19;56.92
60319;BME280;46163;52.306;5.634;2023-05-21T07:37:08;101752.38;;;19.24;57.07
60319;BME280;46163;52.306;5.634;2023-05-21T07:39:34;101745.69;;;19.26;56.94
60319;BME280;46163;52.306;5.634;2023-05-21T07:41:59;101746.88;;;19.30;56.70
60319;BME280;46163;52.306;5.634;2023-05-21T07:44:25;101747.19;;;19.34;56.86
60319;BME280;46163;52.306;5.634;2023-05-21T07:46:50;101744.00;;;19.37;56.75
60319;BME280;46163;52.306;5.634;2023-05-21T07:49:18;101747.56;;;19.37;56.75
60319;BME280;46163;52.306;5.634;2023-05-21T07:51:44;101746.03;;;19.41;56.72
60319;BME280;46163;52.306;5.634;2023-05-21T07:54:09;101740.97;;;19.45;56.66
60319;BME280;46163;52.306;5.634;2023-05-21T07:56:35;101740.50;;;19.48;56.50
60319;BME280;46163;52.306;5.634;2023-05-21T07:59:01;101741.91;;;19.51;56.47
60319;BME280;46163;52.306;5.634;2023-05-21T08:01:26;101735.44;;;19.52;56.72
60319;BME280;46163;52.306;5.634;2023-05-21T08:03:53;101738.13;;;19.52;56.73
60319;BME280;46163;52.306;5.634;2023-05-21T08:06:19;101730.41;;;19.55;56.75
60319;BME280;46163;52.306;5.634;2023-05-21T08:08:46;101734.75;;;19.56;56.78
60319;BME280;46163;52.306;5.634;2023-05-21T08:11:11;101733.22;;;19.60;56.63
60319;BME280;46163;52.306;5.634;2023-05-21T08:13:37;101732.97;;;19.62;56.60
60319;BME280;46163;52.306;5.634;2023-05-21T08:16:04;101743.88;;;19.67;56.59
60319;BME280;46163;52.306;5.634;2023-05-21T08:18:30;101724.16;;;19.66;56.63
60319;BME280;46163;52.306;5.634;2023-05-21T08:20:55;101715.94;;;19.61;56.60
60319;BME280;46163;52.306;5.634;2023-05-21T08:23:21;101723.69;;;19.69;56.73
60319;BME280;46163;52.306;5.634;2023-05-21T08:25:46;101734.03;;;19.72;56.66
60319;BME280;46163;52.306;5.634;2023-05-21T08:28:11;101717.13;;;19.65;56.58
60319;BME280;46163;52.306;5.634;2023-05-21T08:30:37;101719.09;;;19.70;56.80
60319;BME280;46163;52.306;5.634;2023-05-21T08:33:02;101728.81;;;19.83;56.89
60319;BME280;46163;52.306;5.634;2023-05-21T08:35:28;101737.25;;;19.86;57.00
60319;BME280;46163;52.306;5.634;2023-05-21T08:37:53;101741.34;;;19.89;57.05
60319;BME280;46163;52.306;5.634;2023-05-21T08:40:19;101726.34;;;19.81;57.06
60319;BME280;46163;52.306;5.634;2023-05-21T08:42:48;101735.38;;;19.87;56.82
60319;BME280;46163;52.306;5.634;2023-05-21T08:45:19;101738.63;;;19.89;56.57
60319;BME280;46163;52.306;5.634;2023-05-21T08:47:45;101737.00;;;19.88;56.54
60319;BME280;46163;52.306;5.634;2023-05-21T08:50:15;101744.03;;;19.89;56.40
60319;BME280;46163;52.306;5.634;2023-05-21T08:52:44;101732.56;;;19.82;56.45
60319;BME280;46163;52.306;5.634;2023-05-21T08:55:10;101739.44;;;19.89;56.38
60319;BME280;46163;52.306;5.634;2023-05-21T08:57:41;101738.63;;;19.89;56.39
60319;BME280;46163;52.306;5.634;2023-05-21T09:00:07;101734.28;;;19.88;56.29
60319;BME280;46163;52.306;5.634;2023-05-21T09:02:33;101740.31;;;19.90;56.13
60319;BME280;46163;52.306;5.634;2023-05-21T09:05:01;101739.25;;;19.91;56.11
60319;BME280;46163;52.306;5.634;2023-05-21T09:07:27;101744.97;;;19.94;56.09
60319;BME280;46163;52.306;5.634;2023-05-21T09:09:56;101730.63;;;19.94;56.31
60319;BME280;46163;52.306;5.634;2023-05-21T09:12:23;101739.88;;;19.98;56.28
60319;BME280;46163;52.306;5.634;2023-05-21T09:14:50;101729.34;;;19.96;56.25
60319;BME280;46163;52.306;5.634;2023-05-21T09:17:18;101734.03;;;20.01;56.31
60319;BME280;46163;52.306;5.634;2023-05-21T09:20:12;101728.94;;;20.04;56.16
60319;BME280;46163;52.306;5.634;2023-05-21T09:22:43;101730.13;;;20.09;56.51
60319;BME280;46163;52.306;5.634;2023-05-21T09:25:10;101724.47;;;20.10;56.31
60319;BME280;46163;52.306;5.634;2023-05-21T09:27:36;101729.13;;;20.15;56.33
60319;BME280;46163;52.306;5.634;2023-05-21T09:30:04;101727.84;;;20.17;56.35
60319;BME280;46163;52.306;5.634;2023-05-21T09:32:30;101722.19;;;20.19;56.31
60319;BME280;46163;52.306;5.634;2023-05-21T09:34:58;101721.38;;;20.18;56.33
60319;BME280;46163;52.306;5.634;2023-05-21T09:37:30;101716.84;;;20.24;56.09
60319;BME280;46163;52.306;5.634;2023-05-21T09:40:08;101727.44;;;20.25;56.40
60319;BME280;46163;52.306;5.634;2023-05-21T09:42:38;101719.91;;;20.27;56.28
60319;BME280;46163;52.306;5.634;2023-05-21T09:45:07;101713.44;;;20.28;56.21
60319;BME280;46163;52.306;5.634;2023-05-21T09:47:33;101715.41;;;20.33;56.26
60319;BME280;46163;52.306;5.634;2023-05-21T09:49:59;101703.84;;;20.38;56.27
60319;BME280;46163;52.306;5.634;2023-05-21T09:52:24;101699.03;;;20.40;56.16
60319;BME280;46163;52.306;5.634;2023-05-21T09:54:51;101698.78;;;20.41;56.25
60319;BME280;46163;52.306;5.634;2023-05-21T09:57:23;101700.78;;;20.46;56.09
60319;BME280;46163;52.306;5.634;2023-05-21T09:59:49;101699.00;;;20.51;56.09
60319;BME280;46163;52.306;5.634;2023-05-21T10:02:23;101693.59;;;20.51;55.96
60319;BME280;46163;52.306;5.634;2023-05-21T10:04:51;101694.72;;;20.55;56.06
60319;BME280;46163;52.306;5.634;2023-05-21T10:07:20;101693.41;;;20.58;55.85
60319;BME280;46163;52.306;5.634;2023-05-21T10:09:52;101689.16;;;20.62;55.85
60319;BME280;46163;52.306;5.634;2023-05-21T10:12:18;101673.91;;;20.56;55.99
60319;BME280;46163;52.306;5.634;2023-05-21T10:14:50;101675.94;;;20.66;55.74
60319;BME280;46163;52.306;5.634;2023-05-21T10:17:18;101685.22;;;20.70;55.63
60319;BME280;46163;52.306;5.634;2023-05-21T10:19:45;101680.38;;;20.72;55.41
60319;BME280;46163;52.306;5.634;2023-05-21T10:22:12;101672.56;;;20.75;55.37
60319;BME280;46163;52.306;5.634;2023-05-21T10:24:39;101673.88;;;20.73;55.41
60319;BME280;46163;52.306;5.634;2023-05-21T10:27:06;101670.44;;;20.77;55.48
60319;BME280;46163;52.306;5.634;2023-05-21T10:29:32;101671.06;;;20.84;55.23
60319;BME280;46163;52.306;5.634;2023-05-21T10:32:00;101658.41;;;20.85;55.13
60319;BME280;46163;52.306;5.634;2023-05-21T10:34:28;101661.56;;;20.82;55.14
60319;BME280;46163;52.306;5.634;2023-05-21T10:36:56;101653.22;;;20.83;54.97
60319;BME280;46163;52.306;5.634;2023-05-21T10:39:24;101662.09;;;20.79;54.71
60319;BME280;46163;52.306;5.634;2023-05-21T10:42:15;101659.44;;;20.84;54.56
60319;BME280;46163;52.306;5.634;2023-05-21T10:52:59;101651.47;;;20.94;54.26
60319;BME280;46163;52.306;5.634;2023-05-21T11:00:39;101633.09;;;20.96;54.01
60319;BME280;46163;52.306;5.634;2023-05-21T11:03:05;101641.88;;;21.03;54.32
60319;BME280;46163;52.306;5.634;2023-05-21T11:05:54;101641.78;;;20.98;53.97
60319;BME280;46163;52.306;5.634;2023-05-21T11:08:29;101647.75;;;21.00;53.99
60319;BME280;46163;52.306;5.634;2023-05-21T11:11:02;101649.91;;;20.98;54.29
60319;BME280;46163;52.306;5.634;2023-05-21T11:13:45;101645.47;;;20.92;54.23
60319;BME280;46163;52.306;5.634;2023-05-21T11:16:15;101649.59;;;20.95;54.19
60319;BME280;46163;52.306;5.634;2023-05-21T11:18:55;101645.47;;;20.92;53.96
60319;BME280;46163;52.306;5.634;2023-05-21T11:21:21;101646.56;;;20.91;53.82
60319;BME280;46163;52.306;5.634;2023-05-21T11:26:26;101644.22;;;21.00;53.55
60319;BME280;46163;52.306;5.634;2023-05-21T11:31:30;101635.84;;;21.01;54.08
60319;BME280;46163;52.306;5.634;2023-05-21T11:34:23;101628.34;;;21.03;54.05
60319;BME280;46163;52.306;5.634;2023-05-21T11:39:44;101629.53;;;21.12;54.10
60319;BME280;46163;52.306;5.634;2023-05-21T11:42:10;101630.66;;;21.16;53.76
60319;BME280;46163;52.306;5.634;2023-05-21T11:44:42;101618.50;;;21.19;53.94
60319;BME280;46163;52.306;5.634;2023-05-21T11:47:13;101622.88;;;21.20;53.68
60319;BME280;46163;52.306;5.634;2023-05-21T11:49:45;101611.44;;;21.18;54.12
60319;BME280;46163;52.306;5.634;2023-05-21T11:52:12;101619.31;;;21.20;54.17
60319;BME280;46163;52.306;5.634;2023-05-21T11:54:45;101616.38;;;21.21;54.19
60319;BME280;46163;52.306;5.634;2023-05-21T11:57:13;101605.53;;;21.21;53.85
60319;BME280;46163;52.306;5.634;2023-05-21T11:59:43;101609.16;;;21.27;53.95
60319;BME280;46163;52.306;5.634;2023-05-21T12:02:13;101606.44;;;21.27;53.82
60319;BME280;46163;52.306;5.634;2023-05-21T12:04:40;101599.72;;;21.29;53.98
60319;BME280;46163;52.306;5.634;2023-05-21T12:07:08;101605.38;;;21.28;53.92
60319;BME280;46163;52.306;5.634;2023-05-21T12:09:54;101597.81;;;21.30;54.03
60319;BME280;46163;52.306;5.634;2023-05-21T12:12:21;101599.47;;;21.31;53.84
60319;BME280;46163;52.306;5.634;2023-05-21T12:14:49;101602.88;;;21.26;53.91
60319;BME280;46163;52.306;5.634;2023-05-21T12:19:46;101611.91;;;21.32;53.68
60319;BME280;46163;52.306;5.634;2023-05-21T12:22:12;101603.81;;;21.32;53.68
60319;BME280;46163;52.306;5.634;2023-05-21T12:24:39;101593.78;;;21.32;53.49
60319;BME280;46163;52.306;5.634;2023-05-21T12:27:06;101595.69;;;21.32;53.66
60319;BME280;46163;52.306;5.634;2023-05-21T12:29:35;101587.28;;;21.33;53.84
60319;BME280;46163;52.306;5.634;2023-05-21T12:32:03;101580.00;;;21.34;53.87
60319;BME280;46163;52.306;5.634;2023-05-21T12:34:42;101581.38;;;21.36;53.67
60319;BME280;46163;52.306;5.634;2023-05-21T12:37:11;101575.34;;;21.29;54.00
60319;BME280;46163;52.306;5.634;2023-05-21T12:39:37;101580.06;;;21.39;53.61
60319;BME280;46163;52.306;5.634;2023-05-21T12:42:04;101582.50;;;21.40;53.55
60319;BME280;46163;52.306;5.634;2023-05-21T12:44:30;101591.19;;;21.42;53.78
60319;BME280;46163;52.306;5.634;2023-05-21T12:46:56;101570.34;;;21.43;53.84
60319;BME280;46163;52.306;5.634;2023-05-21T12:49:42;101575.75;;;21.43;53.82
60319;BME280;46163;52.306;5.634;2023-05-21T12:52:17;101585.84;;;21.48;53.93
60319;BME280;46163;52.306;5.634;2023-05-21T12:54:48;101567.06;;;21.41;53.48
60319;BME280;46163;52.306;5.634;2023-05-21T12:59:51;101580.44;;;21.53;53.45
60319;BME280;46163;52.306;5.634;2023-05-21T13:02:28;101573.41;;;21.52;53.70
60319;BME280;46163;52.306;5.634;2023-05-21T13:04:58;101577.75;;;21.53;53.28
60319;BME280;46163;52.306;5.634;2023-05-21T13:07:26;101571.25;;;21.54;53.26
60319;BME280;46163;52.306;5.634;2023-05-21T13:09:52;101572.91;;;21.55;53.43
60319;BME280;46163;52.306;5.634;2023-05-21T13:12:19;101566.66;;;21.54;53.64
60319;BME280;46163;52.306;5.634;2023-05-21T13:14:45;101574.22;;;21.52;53.59
60319;BME280;46163;52.306;5.634;2023-05-21T13:17:11;101564.72;;;21.50;53.72
60319;BME280;46163;52.306;5.634;2023-05-21T13:19:37;101562.06;;;21.55;53.55
60319;BME280;46163;52.306;5.634;2023-05-21T13:22:02;101561.81;;;21.56;53.68